Time;durP1;ratioP1;P1;durP2;ratioP2;P2;SDS_P1;SDS_P2;PMS_P1;PMS_P2;Temp;Humidity;BMP_temperature;BMP_pressure;BME280_temperature;BME280_humidity;BME280_pressure;Samples;Min_cycle;Max_cycle;Signal;HPM_P1;HPM_P2
2023/11/15 00:00:49;;;;;;;23.33;5.70;;;;;;;;;;5028184;28;20201;-67
2023/11/15 00:03:16;;;;;;;23.83;5.78;;;;;;;;;;5045583;28;20193;-67
2023/11/15 00:05:42;;;;;;;28.75;6.18;;;;;;;;;;5046139;28;20265;-67
2023/11/15 00:08:07;;;;;;;30.45;6.25;;;;;;;;;;5029841;28;20316;-67
2023/11/15 00:10:32;;;;;;;27.40;6.93;;;;;;;;;;5052621;28;20182;-67
2023/11/15 00:12:58;;;;;;;24.45;6.55;;;;;;;;;;5042297;28;20230;-67
2023/11/15 00:15:24;;;;;;;25.90;5.70;;;;;;;;;;5048928;28;20229;-67
2023/11/15 00:17:49;;;;;;;29.55;6.68;;;;;;;;;;5056956;28;20205;-67
2023/11/15 00:20:15;;;;;;;29.50;5.93;;;;;;;;;;5047857;28;20221;-67
2023/11/15 00:22:41;;;;;;;24.30;5.63;;;;;;;;;;5044316;28;20268;-67
2023/11/15 00:25:07;;;;;;;20.45;4.93;;;;;;;;;;5050396;28;20655;-67
2023/11/15 00:27:33;;;;;;;24.48;5.43;;;;;;;;;;5038744;28;20190;-67
2023/11/15 00:29:58;;;;;;;25.55;5.57;;;;;;;;;;5036878;28;20268;-68
2023/11/15 00:32:23;;;;;;;27.88;5.95;;;;;;;;;;5030042;28;20269;-68
2023/11/15 00:34:49;;;;;;;23.80;5.53;;;;;;;;;;5045212;28;20232;-68
2023/11/15 00:37:15;;;;;;;22.35;5.10;;;;;;;;;;5038855;28;20208;-68
2023/11/15 00:39:41;;;;;;;30.00;5.60;;;;;;;;;;5045794;28;20279;-68
2023/11/15 00:42:08;;;;;;;28.50;5.60;;;;;;;;;;5036558;28;20406;-68
2023/11/15 00:44:33;;;;;;;20.85;5.68;;;;;;;;;;5037781;28;20190;-67
2023/11/15 00:46:59;;;;;;;23.80;5.97;;;;;;;;;;5030253;28;20252;-68
2023/11/15 00:49:24;;;;;;;22.27;6.03;;;;;;;;;;5041001;28;20220;-68
2023/11/15 00:51:50;;;;;;;37.25;6.60;;;;;;;;;;5037148;28;20214;-68
2023/11/15 00:54:15;;;;;;;29.70;5.65;;;;;;;;;;5035134;28;20190;-68
2023/11/15 00:56:41;;;;;;;26.15;6.13;;;;;;;;;;5043767;28;20204;-68
2023/11/15 00:59:06;;;;;;;28.38;6.32;;;;;;;;;;5035254;28;20225;-68
2023/11/15 01:01:32;;;;;;;26.13;5.13;;;;;;;;;;5038817;28;20276;-68
2023/11/15 01:03:58;;;;;;;20.00;5.63;;;;;;;;;;5033406;28;20188;-68
2023/11/15 01:06:27;;;;;;;22.90;5.68;;;;;;;;;;5046519;28;20197;-68
2023/11/15 01:08:54;;;;;;;22.42;5.60;;;;;;;;;;5032093;28;20181;-67
2023/11/15 01:11:20;;;;;;;22.13;5.38;;;;;;;;;;5041323;28;20684;-68
2023/11/15 01:13:46;;;;;;;29.67;5.10;;;;;;;;;;5041086;28;20190;-67
2023/11/15 01:16:12;;;;;;;20.17;5.35;;;;;;;;;;5041702;28;20210;-67
2023/11/15 01:18:39;;;;;;;27.90;5.80;;;;;;;;;;5030038;28;20568;-68
2023/11/15 01:21:05;;;;;;;18.42;4.68;;;;;;;;;;5046687;28;20220;-68
2023/11/15 01:23:31;;;;;;;30.23;5.57;;;;;;;;;;5035621;28;20205;-68
2023/11/15 01:25:56;;;;;;;23.23;4.97;;;;;;;;;;5043581;28;20178;-69
2023/11/15 01:28:22;;;;;;;18.75;4.40;;;;;;;;;;5037960;28;20189;-68
2023/11/15 01:30:47;;;;;;;24.33;5.40;;;;;;;;;;5038427;28;20646;-68
2023/11/15 01:33:13;;;;;;;28.60;5.90;;;;;;;;;;5035289;28;20233;-68
2023/11/15 01:35:39;;;;;;;25.58;5.93;;;;;;;;;;5046796;28;20921;-68
2023/11/15 01:38:05;;;;;;;18.98;5.68;;;;;;;;;;5028769;28;20201;-68
2023/11/15 01:40:33;;;;;;;24.25;7.32;;;;;;;;;;5035528;28;20198;-67
2023/11/15 01:42:59;;;;;;;27.30;6.90;;;;;;;;;;5032033;28;20597;-67
2023/11/15 01:45:25;;;;;;;21.08;6.78;;;;;;;;;;5033036;28;20182;-67
2023/11/15 01:47:51;;;;;;;22.65;7.45;;;;;;;;;;5036857;28;20189;-69
2023/11/15 01:50:17;;;;;;;34.95;8.13;;;;;;;;;;5037351;28;20201;-68
2023/11/15 01:52:45;;;;;;;32.63;7.97;;;;;;;;;;5039900;28;20541;-68
2023/11/15 01:55:16;;;;;;;30.63;8.73;;;;;;;;;;5043011;28;20224;-68
2023/11/15 01:57:42;;;;;;;24.52;9.05;;;;;;;;;;5035294;28;20649;-68
2023/11/15 02:00:10;;;;;;;26.02;8.50;;;;;;;;;;5038216;28;20276;-68
2023/11/15 02:02:37;;;;;;;30.80;9.60;;;;;;;;;;5036381;28;20567;-69
2023/11/15 02:05:03;;;;;;;33.17;10.20;;;;;;;;;;5032163;28;20198;-68
2023/11/15 02:07:29;;;;;;;32.97;10.32;;;;;;;;;;5036543;28;20209;-68
2023/11/15 02:09:54;;;;;;;38.50;10.45;;;;;;;;;;5048288;28;20690;-68
2023/11/15 02:12:20;;;;;;;36.72;10.80;;;;;;;;;;5038018;28;20314;-68
2023/11/15 02:14:46;;;;;;;31.15;11.10;;;;;;;;;;5035343;28;20213;-68
2023/11/15 02:17:13;;;;;;;30.92;11.57;;;;;;;;;;5041936;28;20190;-68
2023/11/15 02:19:38;;;;;;;34.67;11.27;;;;;;;;;;5042036;28;20200;-68
2023/11/15 02:22:04;;;;;;;30.98;12.32;;;;;;;;;;5038544;28;20201;-68
2023/11/15 02:24:30;;;;;;;35.50;12.13;;;;;;;;;;5032664;28;20610;-69
2023/11/15 02:26:55;;;;;;;37.40;12.98;;;;;;;;;;5039225;28;20185;-68
2023/11/15 02:29:21;;;;;;;40.70;13.40;;;;;;;;;;5032826;28;20186;-68
2023/11/15 02:31:46;;;;;;;34.80;13.10;;;;;;;;;;5039405;28;20200;-68
2023/11/15 02:34:12;;;;;;;36.63;12.73;;;;;;;;;;5037540;28;20631;-68
2023/11/15 02:36:37;;;;;;;35.90;12.57;;;;;;;;;;5040421;28;20628;-68
2023/11/15 02:39:03;;;;;;;35.53;12.48;;;;;;;;;;5040437;28;20197;-69
2023/11/15 02:41:28;;;;;;;35.70;13.70;;;;;;;;;;5034935;28;20193;-68
2023/11/15 02:43:55;;;;;;;34.90;14.00;;;;;;;;;;5035464;28;20621;-69
2023/11/15 02:46:22;;;;;;;31.17;12.52;;;;;;;;;;5031027;28;20247;-69
2023/11/15 02:48:51;;;;;;;32.20;14.07;;;;;;;;;;5029418;28;20530;-69
2023/11/15 02:51:17;;;;;;;36.25;15.13;;;;;;;;;;5036911;28;20190;-69
2023/11/15 02:53:43;;;;;;;29.83;14.43;;;;;;;;;;5039176;28;20261;-69
2023/11/15 02:56:08;;;;;;;34.05;14.90;;;;;;;;;;5031331;28;20230;-69
2023/11/15 02:58:34;;;;;;;36.47;14.93;;;;;;;;;;5039469;28;20633;-69
2023/11/15 03:01:00;;;;;;;32.47;14.98;;;;;;;;;;5038493;28;20200;-69
2023/11/15 03:03:26;;;;;;;35.47;14.23;;;;;;;;;;5040590;28;20197;-68
2023/11/15 03:05:51;;;;;;;35.15;14.52;;;;;;;;;;5043174;28;20276;-68
2023/11/15 03:08:18;;;;;;;30.83;13.75;;;;;;;;;;5045106;28;20624;-69
2023/11/15 03:10:43;;;;;;;31.80;13.60;;;;;;;;;;5047197;28;20193;-68
2023/11/15 03:13:09;;;;;;;35.60;14.02;;;;;;;;;;5034049;28;20663;-69
2023/11/15 03:15:36;;;;;;;30.38;13.98;;;;;;;;;;5029755;28;20210;-68
2023/11/15 03:18:02;;;;;;;27.75;12.63;;;;;;;;;;5027420;28;20277;-69
2023/11/15 03:20:28;;;;;;;26.23;11.88;;;;;;;;;;5033820;28;20276;-68
2023/11/15 03:22:53;;;;;;;29.40;13.68;;;;;;;;;;5039060;28;20186;-67
2023/11/15 03:25:19;;;;;;;29.13;12.20;;;;;;;;;;5034960;28;20190;-68
2023/11/15 03:27:44;;;;;;;29.00;12.18;;;;;;;;;;5034751;28;20276;-68
2023/11/15 03:30:12;;;;;;;27.38;13.00;;;;;;;;;;5042431;28;20193;-68
2023/11/15 03:32:37;;;;;;;30.35;12.23;;;;;;;;;;5043986;28;20232;-67
2023/11/15 03:35:04;;;;;;;30.38;13.27;;;;;;;;;;5047500;28;20717;-68
2023/11/15 03:37:30;;;;;;;28.58;13.13;;;;;;;;;;5042151;28;20208;-67
2023/11/15 03:39:56;;;;;;;27.98;11.57;;;;;;;;;;5041714;28;20186;-67
2023/11/15 03:42:21;;;;;;;28.70;11.52;;;;;;;;;;5030077;28;20193;-67
2023/11/15 03:44:47;;;;;;;24.42;11.70;;;;;;;;;;5031070;28;20653;-67
2023/11/15 03:47:12;;;;;;;25.15;10.38;;;;;;;;;;5040995;28;20330;-67
2023/11/15 03:49:38;;;;;;;26.13;10.73;;;;;;;;;;5037390;28;20193;-67
2023/11/15 03:52:03;;;;;;;20.35;9.95;;;;;;;;;;5041853;28;20272;-67
2023/11/15 03:54:28;;;;;;;30.25;9.70;;;;;;;;;;5033231;28;20216;-67
2023/11/15 03:56:54;;;;;;;23.25;10.57;;;;;;;;;;5035727;28;20236;-67
2023/11/15 03:59:19;;;;;;;32.17;10.23;;;;;;;;;;5047500;28;20197;-68
2023/11/15 04:01:48;;;;;;;19.10;9.02;;;;;;;;;;5035047;28;20653;-67
2023/11/15 04:04:14;;;;;;;19.27;8.88;;;;;;;;;;5038812;28;20284;-68
2023/11/15 04:06:39;;;;;;;24.02;10.07;;;;;;;;;;5041058;28;20265;-67
2023/11/15 04:09:04;;;;;;;22.52;8.85;;;;;;;;;;5041194;28;20190;-67
2023/11/15 04:11:40;;;;;;;21.88;9.73;;;;;;;;;;5046346;28;20201;-67
2023/11/15 04:14:06;;;;;;;20.50;8.18;;;;;;;;;;5042081;28;20200;-67
2023/11/15 04:16:31;;;;;;;19.10;9.30;;;;;;;;;;5043770;28;20246;-68
2023/11/15 04:18:58;;;;;;;20.95;8.68;;;;;;;;;;5039111;28;20222;-67
2023/11/15 04:21:24;;;;;;;18.58;8.57;;;;;;;;;;5040797;28;20197;-67
2023/11/15 04:23:50;;;;;;;23.90;9.30;;;;;;;;;;5037861;28;20194;-67
2023/11/15 04:26:16;;;;;;;22.27;8.13;;;;;;;;;;5045799;28;20272;-67
2023/11/15 04:28:41;;;;;;;20.10;7.93;;;;;;;;;;5040327;28;20273;-68
2023/11/15 04:31:06;;;;;;;22.20;9.05;;;;;;;;;;5040865;28;20190;-68
2023/11/15 04:33:32;;;;;;;15.13;7.65;;;;;;;;;;5039043;28;20222;-68
2023/11/15 04:35:59;;;;;;;20.13;8.07;;;;;;;;;;5039775;28;20217;-68
2023/11/15 04:38:26;;;;;;;16.80;7.93;;;;;;;;;;5033566;28;20185;-68
2023/11/15 04:40:52;;;;;;;28.88;8.10;;;;;;;;;;5033236;28;20204;-68
2023/11/15 04:43:17;;;;;;;19.23;7.10;;;;;;;;;;5030738;28;20194;-68
2023/11/15 04:45:42;;;;;;;15.82;7.63;;;;;;;;;;5034990;28;20555;-68
2023/11/15 04:48:08;;;;;;;18.20;7.35;;;;;;;;;;5033341;28;20280;-68
2023/11/15 04:50:33;;;;;;;18.45;7.10;;;;;;;;;;5030559;28;20197;-68
2023/11/15 04:52:59;;;;;;;17.40;6.13;;;;;;;;;;5030038;28;20665;-68
2023/11/15 04:55:25;;;;;;;16.20;6.68;;;;;;;;;;5039588;28;20282;-68
2023/11/15 04:57:50;;;;;;;13.65;6.57;;;;;;;;;;5030967;28;20262;-68
2023/11/15 05:00:15;;;;;;;16.55;6.03;;;;;;;;;;5034092;28;20325;-68
2023/11/15 05:02:41;;;;;;;12.80;6.40;;;;;;;;;;5032268;28;20277;-68
2023/11/15 05:05:06;;;;;;;13.07;5.93;;;;;;;;;;5033169;28;20192;-68
2023/11/15 05:07:32;;;;;;;14.82;5.97;;;;;;;;;;5041697;28;20707;-68
2023/11/15 05:09:58;;;;;;;13.07;5.88;;;;;;;;;;5041011;28;20201;-68
2023/11/15 05:12:24;;;;;;;11.73;5.78;;;;;;;;;;5032382;28;20550;-68
2023/11/15 05:14:49;;;;;;;11.20;5.70;;;;;;;;;;5031790;28;20210;-68
2023/11/15 05:17:15;;;;;;;18.20;5.82;;;;;;;;;;5037145;28;20182;-68
2023/11/15 05:19:40;;;;;;;16.17;6.30;;;;;;;;;;5039282;28;20193;-68
2023/11/15 05:22:05;;;;;;;12.82;5.50;;;;;;;;;;5042927;28;20193;-70
2023/11/15 05:24:31;;;;;;;11.80;5.03;;;;;;;;;;5043031;28;20186;-72
2023/11/15 05:26:56;;;;;;;9.50;4.57;;;;;;;;;;5040579;28;20272;-71
2023/11/15 05:29:22;;;;;;;11.25;4.63;;;;;;;;;;5037760;28;20316;-70
2023/11/15 05:31:48;;;;;;;11.80;4.60;;;;;;;;;;5029277;28;20428;-71
2023/11/15 05:34:13;;;;;;;10.80;4.88;;;;;;;;;;5039615;28;20591;-72
2023/11/15 05:36:39;;;;;;;8.45;4.47;;;;;;;;;;5042268;28;20213;-72
2023/11/15 05:39:05;;;;;;;11.30;4.55;;;;;;;;;;5033032;28;20189;-72
2023/11/15 05:41:30;;;;;;;12.93;4.32;;;;;;;;;;5040527;28;20313;-72
2023/11/15 05:43:56;;;;;;;9.98;4.00;;;;;;;;;;5032628;28;20200;-72
2023/11/15 05:46:21;;;;;;;9.05;3.70;;;;;;;;;;5029486;28;20265;-71
2023/11/15 05:48:46;;;;;;;8.00;3.55;;;;;;;;;;5032208;28;20194;-72
2023/11/15 05:51:12;;;;;;;6.43;2.65;;;;;;;;;;5035580;28;20190;-72
2023/11/15 05:53:38;;;;;;;7.20;3.58;;;;;;;;;;5034630;28;20213;-72
2023/11/15 05:56:04;;;;;;;5.78;3.28;;;;;;;;;;5042869;28;20307;-72
2023/11/15 05:58:30;;;;;;;6.18;3.35;;;;;;;;;;5033948;28;20217;-72
2023/11/15 06:00:56;;;;;;;7.13;3.08;;;;;;;;;;5033245;28;20193;-72
2023/11/15 06:03:21;;;;;;;10.20;3.45;;;;;;;;;;5028450;28;20217;-73
2023/11/15 06:05:47;;;;;;;8.23;3.55;;;;;;;;;;5027429;28;20247;-74
2023/11/15 06:08:13;;;;;;;6.00;2.40;;;;;;;;;;5038701;28;20213;-73
2023/11/15 06:10:38;;;;;;;9.07;2.40;;;;;;;;;;5036065;28;20291;-72
2023/11/15 06:13:06;;;;;;;8.18;2.50;;;;;;;;;;5037621;28;20190;-73
2023/11/15 06:15:31;;;;;;;7.18;2.47;;;;;;;;;;5042019;28;20541;-73
2023/11/15 06:17:57;;;;;;;4.10;2.00;;;;;;;;;;5028048;28;20185;-73
2023/11/15 06:20:22;;;;;;;3.03;1.40;;;;;;;;;;5039177;28;20225;-73
2023/11/15 06:22:48;;;;;;;6.50;1.70;;;;;;;;;;5036268;28;20244;-72
2023/11/15 06:25:18;;;;;;;3.50;1.30;;;;;;;;;;5036294;28;20286;-73
2023/11/15 06:27:45;;;;;;;3.90;1.20;;;;;;;;;;5031590;28;20190;-72
2023/11/15 06:30:12;;;;;;;2.50;1.02;;;;;;;;;;5038541;28;20239;-72
2023/11/15 06:32:37;;;;;;;1.80;0.73;;;;;;;;;;5039744;28;20252;-71
2023/11/15 06:35:03;;;;;;;2.33;0.60;;;;;;;;;;5034444;28;20246;-70
2023/11/15 06:37:29;;;;;;;1.92;0.80;;;;;;;;;;5037474;28;20184;-71
2023/11/15 06:39:55;;;;;;;1.58;0.60;;;;;;;;;;5030503;28;20186;-71
2023/11/15 06:42:23;;;;;;;2.78;0.70;;;;;;;;;;5030810;28;20634;-71
2023/11/15 06:44:48;;;;;;;5.53;0.70;;;;;;;;;;5028602;28;20289;-70
2023/11/15 06:47:14;;;;;;;2.10;0.50;;;;;;;;;;5029164;28;20178;-71
2023/11/15 06:49:42;;;;;;;0.82;0.40;;;;;;;;;;5028936;28;20551;-70
2023/11/15 06:52:07;;;;;;;0.90;0.47;;;;;;;;;;5034614;28;20536;-71
2023/11/15 06:54:33;;;;;;;3.80;0.60;;;;;;;;;;5030024;28;20213;-70
2023/11/15 06:56:58;;;;;;;2.22;0.60;;;;;;;;;;5028844;28;20208;-70
2023/11/15 06:59:25;;;;;;;1.95;0.50;;;;;;;;;;5031005;28;20198;-70
2023/11/15 07:01:51;;;;;;;2.80;0.70;;;;;;;;;;5044142;28;20189;-70
2023/11/15 07:04:16;;;;;;;3.35;0.50;;;;;;;;;;5030838;28;20585;-69
2023/11/15 07:06:45;;;;;;;0.95;0.38;;;;;;;;;;5032802;28;20289;-69
2023/11/15 07:09:12;;;;;;;0.73;0.45;;;;;;;;;;5041566;28;20193;-69
2023/11/15 07:11:42;;;;;;;1.67;0.40;;;;;;;;;;5034977;28;20275;-69
2023/11/15 07:14:10;;;;;;;1.17;0.50;;;;;;;;;;5041982;28;20197;-69
2023/11/15 07:16:35;;;;;;;1.83;0.45;;;;;;;;;;5029041;28;20206;-69
2023/11/15 07:19:00;;;;;;;3.50;0.50;;;;;;;;;;5055929;28;20204;-69
2023/11/15 07:21:26;;;;;;;1.77;0.40;;;;;;;;;;5041996;28;20190;-69
2023/11/15 07:23:51;;;;;;;1.15;0.40;;;;;;;;;;5027215;28;20270;-68
2023/11/15 07:26:17;;;;;;;0.57;0.57;;;;;;;;;;5038639;28;20197;-68
2023/11/15 07:28:43;;;;;;;2.53;0.43;;;;;;;;;;5028798;28;20178;-68
2023/11/15 07:31:13;;;;;;;1.13;0.77;;;;;;;;;;5035669;28;20208;-68
2023/11/15 07:33:40;;;;;;;2.55;0.65;;;;;;;;;;5032390;28;20234;-68
2023/11/15 07:36:06;;;;;;;3.45;0.68;;;;;;;;;;5033059;28;20206;-69
2023/11/15 07:38:31;;;;;;;1.70;0.70;;;;;;;;;;5039567;28;20191;-69
2023/11/15 07:40:57;;;;;;;1.85;0.77;;;;;;;;;;5027156;28;20213;-70
2023/11/15 07:43:22;;;;;;;3.67;0.65;;;;;;;;;;5037915;28;20351;-69
2023/11/15 07:45:52;;;;;;;4.18;0.93;;;;;;;;;;5030561;28;20178;-69
2023/11/15 07:48:19;;;;;;;1.75;0.65;;;;;;;;;;5031934;28;20288;-69
2023/11/15 07:50:46;;;;;;;1.77;1.10;;;;;;;;;;5026028;28;20182;-69
2023/11/15 07:53:12;;;;;;;4.03;1.05;;;;;;;;;;5034635;28;20189;-69
2023/11/15 07:55:38;;;;;;;2.00;1.20;;;;;;;;;;5039169;28;20226;-68
2023/11/15 07:58:04;;;;;;;2.80;1.00;;;;;;;;;;5028730;28;20311;-68
2023/11/15 08:00:30;;;;;;;2.47;0.98;;;;;;;;;;5033059;28;20190;-68
2023/11/15 08:02:55;;;;;;;3.08;0.95;;;;;;;;;;5043730;28;20194;-68
2023/11/15 08:05:21;;;;;;;1.48;1.00;;;;;;;;;;5028140;28;20599;-68
2023/11/15 08:07:47;;;;;;;2.50;1.20;;;;;;;;;;5033859;28;20194;-71
2023/11/15 08:10:14;;;;;;;2.38;0.90;;;;;;;;;;5031972;28;20277;-72
2023/11/15 08:12:43;;;;;;;3.40;0.93;;;;;;;;;;5032951;28;20461;-73
2023/11/15 08:15:11;;;;;;;1.60;0.82;;;;;;;;;;5040853;28;20653;-72
2023/11/15 08:17:37;;;;;;;3.55;1.23;;;;;;;;;;5053872;28;20649;-72
2023/11/15 08:20:04;;;;;;;3.30;1.13;;;;;;;;;;5042511;28;20269;-73
2023/11/15 08:22:31;;;;;;;4.03;1.40;;;;;;;;;;5034995;28;20198;-73
2023/11/15 08:24:57;;;;;;;1.35;1.25;;;;;;;;;;5032793;28;20174;-74
2023/11/15 08:27:22;;;;;;;6.05;1.50;;;;;;;;;;5040860;28;20193;-73
2023/11/15 08:29:48;;;;;;;6.57;1.50;;;;;;;;;;5031454;28;20246;-73
2023/11/15 08:32:13;;;;;;;1.63;1.17;;;;;;;;;;5031182;28;20190;-72
2023/11/15 08:34:38;;;;;;;4.43;1.42;;;;;;;;;;5037850;28;20174;-73
2023/11/15 08:37:05;;;;;;;7.93;1.52;;;;;;;;;;5030925;28;20284;-73
2023/11/15 08:39:32;;;;;;;3.13;1.00;;;;;;;;;;5030390;28;20197;-73
2023/11/15 08:41:58;;;;;;;3.47;1.20;;;;;;;;;;5030153;28;20217;-72
2023/11/15 08:44:23;;;;;;;3.10;1.20;;;;;;;;;;5046985;28;20658;-73
2023/11/15 08:46:51;;;;;;;4.32;1.13;;;;;;;;;;5033711;28;20181;-73
2023/11/15 08:49:17;;;;;;;7.03;1.00;;;;;;;;;;5036239;28;20193;-73
2023/11/15 08:51:44;;;;;;;4.57;1.02;;;;;;;;;;5046812;28;20289;-72
2023/11/15 08:54:10;;;;;;;5.60;1.00;;;;;;;;;;5045799;28;20566;-72
2023/11/15 08:56:37;;;;;;;2.63;1.00;;;;;;;;;;5028673;28;20222;-73
2023/11/15 08:59:03;;;;;;;2.88;1.48;;;;;;;;;;5046172;28;20621;-72
2023/11/15 09:01:30;;;;;;;4.63;1.33;;;;;;;;;;5043022;28;20186;-72
2023/11/15 09:03:55;;;;;;;3.53;1.20;;;;;;;;;;5043406;28;20197;-72
2023/11/15 09:06:23;;;;;;;5.70;1.60;;;;;;;;;;5029976;28;20198;-72
2023/11/15 09:08:48;;;;;;;5.13;1.60;;;;;;;;;;5038739;28;20512;-73
2023/11/15 09:11:16;;;;;;;9.43;1.50;;;;;;;;;;5047171;28;20196;-73
2023/11/15 09:13:41;;;;;;;8.15;1.75;;;;;;;;;;5032309;28;20323;-72
2023/11/15 09:16:08;;;;;;;6.60;2.03;;;;;;;;;;5036119;28;20246;-71
2023/11/15 09:18:34;;;;;;;10.35;2.10;;;;;;;;;;5041988;28;20194;-71
2023/11/15 09:21:00;;;;;;;7.07;1.90;;;;;;;;;;5039957;28;20200;-71
2023/11/15 09:23:29;;;;;;;4.65;1.80;;;;;;;;;;5049286;28;20193;-72
2023/11/15 09:25:54;;;;;;;7.13;1.60;;;;;;;;;;5040188;28;20289;-72
2023/11/15 09:28:21;;;;;;;7.45;2.20;;;;;;;;;;5044215;28;20194;-72
2023/11/15 09:30:48;;;;;;;3.97;2.00;;;;;;;;;;5033388;28;20189;-72
2023/11/15 09:33:16;;;;;;;11.73;3.05;;;;;;;;;;5043420;28;20692;-71
2023/11/15 09:35:44;;;;;;;12.85;3.10;;;;;;;;;;5032063;28;20246;-70
2023/11/15 09:38:11;;;;;;;10.00;3.03;;;;;;;;;;5040475;28;20190;-70
2023/11/15 09:40:36;;;;;;;17.05;4.10;;;;;;;;;;5051148;28;20226;-70
2023/11/15 09:43:05;;;;;;;14.80;3.50;;;;;;;;;;5030201;28;20209;-69
2023/11/15 09:45:35;;;;;;;12.50;3.50;;;;;;;;;;5032353;28;20253;-68
2023/11/15 09:48:02;;;;;;;11.93;4.32;;;;;;;;;;5040464;28;20225;-69
2023/11/15 09:50:31;;;;;;;11.55;4.15;;;;;;;;;;5029078;28;20336;-69
2023/11/15 09:53:03;;;;;;;13.93;4.07;;;;;;;;;;5046341;28;20250;-69
2023/11/15 09:55:28;;;;;;;12.57;4.25;;;;;;;;;;5039544;28;20576;-70
2023/11/15 09:57:55;;;;;;;22.25;4.20;;;;;;;;;;5032083;28;20192;-70
2023/11/15 10:00:22;;;;;;;21.17;4.55;;;;;;;;;;5046944;28;20273;-70
2023/11/15 10:02:50;;;;;;;13.77;3.88;;;;;;;;;;5030703;28;20194;-70
2023/11/15 10:05:26;;;;;;;17.48;4.13;;;;;;;;;;5040924;28;20203;-70
2023/11/15 10:08:08;;;;;;;17.55;3.70;;;;;;;;;;5045707;28;20189;-70
2023/11/15 10:10:33;;;;;;;15.90;4.13;;;;;;;;;;5038893;28;20190;-70
2023/11/15 10:12:59;;;;;;;19.60;3.55;;;;;;;;;;5042338;28;20579;-69
2023/11/15 10:15:36;;;;;;;21.70;3.33;;;;;;;;;;5028770;28;20210;-69
2023/11/15 10:18:03;;;;;;;24.15;3.90;;;;;;;;;;5029542;28;20228;-69
2023/11/15 10:20:30;;;;;;;20.52;3.20;;;;;;;;;;5041326;28;20197;-70
2023/11/15 10:22:57;;;;;;;18.80;3.22;;;;;;;;;;5028294;28;20193;-70
2023/11/15 10:25:25;;;;;;;19.38;3.55;;;;;;;;;;5032640;28;20653;-70
2023/11/15 10:28:00;;;;;;;19.55;3.50;;;;;;;;;;5028781;28;20532;-70
2023/11/15 10:30:26;;;;;;;18.92;3.33;;;;;;;;;;5032143;28;20184;-69
2023/11/15 10:33:03;;;;;;;15.15;3.35;;;;;;;;;;5035424;28;20230;-69
2023/11/15 10:35:32;;;;;;;16.02;3.08;;;;;;;;;;5045345;28;20198;-69
2023/11/15 10:37:57;;;;;;;11.95;2.50;;;;;;;;;;5051640;28;20197;-69
2023/11/15 10:40:25;;;;;;;15.32;3.50;;;;;;;;;;5033519;28;20551;-70
2023/11/15 10:42:55;;;;;;;15.85;2.40;;;;;;;;;;5029226;28;20178;-69
2023/11/15 10:45:27;;;;;;;16.00;2.78;;;;;;;;;;5045471;28;20189;-69
2023/11/15 10:47:57;;;;;;;14.35;2.53;;;;;;;;;;5036820;28;20188;-68
2023/11/15 10:50:31;;;;;;;16.60;2.90;;;;;;;;;;5031510;28;20249;-68
2023/11/15 11:59:29;;;;;;;14.57;2.42;;;;;;;;;;5079969;28;20642;-66
2023/11/15 12:01:55;;;;;;;14.15;2.50;;;;;;;;;;5081787;28;20927;-66
2023/11/15 12:04:20;;;;;;;15.27;2.90;;;;;;;;;;5076730;28;20395;-65
2023/11/15 12:06:46;;;;;;;15.73;4.03;;;;;;;;;;5065011;28;20545;-66
2023/11/15 12:09:21;;;;;;;13.48;2.50;;;;;;;;;;5068744;28;20200;-67
2023/11/15 12:11:47;;;;;;;14.40;2.55;;;;;;;;;;5064247;28;20180;-66
2023/11/15 12:14:15;;;;;;;16.20;2.50;;;;;;;;;;5078324;28;20640;-67
2023/11/15 12:16:40;;;;;;;10.00;2.20;;;;;;;;;;5077509;28;20267;-67
2023/11/15 12:19:09;;;;;;;15.63;2.45;;;;;;;;;;5075550;28;20315;-66
2023/11/15 12:21:42;;;;;;;13.50;2.70;;;;;;;;;;5076312;28;20663;-67
2023/11/15 12:24:10;;;;;;;10.20;2.40;;;;;;;;;;5071474;28;20184;-66
2023/11/15 12:26:54;;;;;;;13.50;2.30;;;;;;;;;;5069015;28;20283;-66
2023/11/15 12:29:26;;;;;;;13.38;1.88;;;;;;;;;;5083664;28;20229;-66
2023/11/15 12:31:55;;;;;;;11.35;2.40;;;;;;;;;;5080457;28;20192;-66
2023/11/15 12:34:25;;;;;;;14.63;2.22;;;;;;;;;;5063483;28;20213;-66
2023/11/15 12:36:51;;;;;;;11.30;2.00;;;;;;;;;;5075993;28;20185;-69
2023/11/15 12:39:21;;;;;;;14.20;2.72;;;;;;;;;;5072364;28;20187;-66
2023/11/15 12:41:52;;;;;;;12.85;1.95;;;;;;;;;;5069500;28;20340;-66
2023/11/15 12:44:17;;;;;;;15.40;2.30;;;;;;;;;;5079550;28;20195;-66
2023/11/15 12:46:43;;;;;;;13.13;2.05;;;;;;;;;;5070898;28;20185;-67
2023/11/15 12:49:15;;;;;;;10.25;1.60;;;;;;;;;;5068964;28;20233;-67
2023/11/15 12:51:46;;;;;;;12.13;1.70;;;;;;;;;;5070786;28;20187;-66
2023/11/15 12:54:12;;;;;;;14.75;1.88;;;;;;;;;;5072393;28;20590;-66
2023/11/15 12:56:38;;;;;;;10.70;1.65;;;;;;;;;;5069190;28;20200;-66
2023/11/15 12:59:04;;;;;;;10.48;2.40;;;;;;;;;;5064644;28;20221;-67
2023/11/15 13:01:30;;;;;;;10.77;1.67;;;;;;;;;;5069889;28;20220;-67
2023/11/15 13:03:56;;;;;;;10.27;2.10;;;;;;;;;;5056421;28;20216;-68
2023/11/15 13:06:22;;;;;;;7.95;1.95;;;;;;;;;;5064486;28;20296;-67
2023/11/15 13:08:52;;;;;;;10.43;1.65;;;;;;;;;;5052332;28;20273;-67
2023/11/15 13:11:20;;;;;;;10.30;1.88;;;;;;;;;;5051553;28;20276;-67
2023/11/15 13:13:48;;;;;;;12.35;1.60;;;;;;;;;;5051094;28;20244;-67
2023/11/15 13:16:18;;;;;;;10.90;1.90;;;;;;;;;;5069091;28;20213;-67
2023/11/15 13:18:44;;;;;;;8.80;1.92;;;;;;;;;;5071231;28;20185;-66
2023/11/15 13:21:12;;;;;;;8.50;1.45;;;;;;;;;;5066586;28;20271;-67
2023/11/15 13:23:38;;;;;;;13.82;2.00;;;;;;;;;;5052107;28;20181;-67
2023/11/15 13:26:04;;;;;;;12.20;1.40;;;;;;;;;;5053909;28;20201;-66
2023/11/15 13:28:34;;;;;;;8.45;1.80;;;;;;;;;;5054234;28;20190;-66
2023/11/15 13:31:03;;;;;;;8.35;1.60;;;;;;;;;;5058891;28;20720;-66
2023/11/15 13:33:32;;;;;;;9.15;1.48;;;;;;;;;;5059679;28;20617;-66
2023/11/15 13:35:58;;;;;;;10.50;2.15;;;;;;;;;;5059876;28;20185;-67
2023/11/15 13:38:25;;;;;;;8.70;1.63;;;;;;;;;;5053727;28;20192;-66
2023/11/15 13:40:52;;;;;;;7.00;1.45;;;;;;;;;;5069990;28;20526;-66
2023/11/15 13:43:17;;;;;;;8.93;1.30;;;;;;;;;;5068510;28;20761;-67
2023/11/15 13:45:45;;;;;;;6.35;1.08;;;;;;;;;;5069623;28;20216;-67
2023/11/15 13:48:14;;;;;;;7.95;1.27;;;;;;;;;;5054550;28;20217;-67
2023/11/15 13:50:40;;;;;;;9.30;1.60;;;;;;;;;;5057519;28;20587;-67
2023/11/15 13:53:06;;;;;;;4.93;1.15;;;;;;;;;;5049855;28;20213;-66
2023/11/15 13:55:31;;;;;;;7.03;1.10;;;;;;;;;;4361618;28;10000627;-66
2023/11/15 13:57:57;;;;;;;8.48;0.98;;;;;;;;;;5050435;28;20217;-66
2023/11/15 14:00:33;;;;;;;4.70;1.02;;;;;;;;;;5057750;28;20201;-66
2023/11/15 14:02:59;;;;;;;3.33;0.80;;;;;;;;;;5065096;28;20285;-68
2023/11/15 14:05:25;;;;;;;4.45;0.82;;;;;;;;;;5059129;28;20189;-67
2023/11/15 14:07:52;;;;;;;7.15;1.10;;;;;;;;;;5064249;28;20212;-67
2023/11/15 14:10:25;;;;;;;5.72;1.25;;;;;;;;;;5056999;28;20200;-68
2023/11/15 14:12:53;;;;;;;5.30;1.02;;;;;;;;;;5047877;28;20200;-69
2023/11/15 14:15:21;;;;;;;8.70;1.30;;;;;;;;;;5054639;28;20177;-67
2023/11/15 14:17:48;;;;;;;8.50;1.48;;;;;;;;;;5062081;28;20264;-68
2023/11/15 14:20:15;;;;;;;9.88;1.40;;;;;;;;;;5064129;28;20194;-68
2023/11/15 14:22:41;;;;;;;8.07;1.20;;;;;;;;;;5052918;28;20545;-68
2023/11/15 14:25:19;;;;;;;9.13;1.60;;;;;;;;;;5058320;28;20921;-68
2023/11/15 14:27:45;;;;;;;11.30;1.75;;;;;;;;;;5063643;28;20215;-68
2023/11/15 14:30:11;;;;;;;9.43;1.95;;;;;;;;;;5049131;28;20201;-67
2023/11/15 14:32:37;;;;;;;6.75;1.52;;;;;;;;;;5067008;28;20191;-67
2023/11/15 14:35:04;;;;;;;10.23;1.40;;;;;;;;;;5043963;28;20292;-68
2023/11/15 14:37:29;;;;;;;10.32;1.40;;;;;;;;;;5057085;28;20192;-67
2023/11/15 14:39:56;;;;;;;8.77;1.60;;;;;;;;;;5046482;28;20198;-68
2023/11/15 14:42:23;;;;;;;7.97;1.65;;;;;;;;;;5064608;28;20223;-68
2023/11/15 14:44:48;;;;;;;9.98;1.63;;;;;;;;;;5056059;28;20192;-67
2023/11/15 14:47:14;;;;;;;7.07;1.40;;;;;;;;;;5047034;28;20221;-67
2023/11/15 14:49:40;;;;;;;5.65;1.23;;;;;;;;;;5045768;28;20627;-67
2023/11/15 14:52:12;;;;;;;11.95;1.27;;;;;;;;;;5060216;28;20197;-67
2023/11/15 14:54:45;;;;;;;7.53;1.27;;;;;;;;;;5055888;28;20216;-68
2023/11/15 14:57:12;;;;;;;11.48;1.48;;;;;;;;;;5056967;28;20259;-67
2023/11/15 14:59:42;;;;;;;12.73;1.50;;;;;;;;;;5065000;28;20198;-67
2023/11/15 15:02:09;;;;;;;17.83;1.80;;;;;;;;;;5058698;28;20190;-67
2023/11/15 15:04:35;;;;;;;9.02;1.58;;;;;;;;;;5052298;28;20185;-67
2023/11/15 15:07:01;;;;;;;11.10;1.92;;;;;;;;;;5058637;28;20898;-68
2023/11/15 15:09:27;;;;;;;5.85;1.50;;;;;;;;;;5053758;28;20192;-67
2023/11/15 15:11:56;;;;;;;11.85;1.88;;;;;;;;;;5051772;28;21843;-67
2023/11/15 15:14:22;;;;;;;9.07;1.85;;;;;;;;;;5051047;28;20186;-67
2023/11/15 15:16:47;;;;;;;6.28;1.52;;;;;;;;;;5055013;28;20195;-67
2023/11/15 15:19:12;;;;;;;8.50;1.60;;;;;;;;;;5050329;28;20551;-67
2023/11/15 15:21:41;;;;;;;5.82;1.52;;;;;;;;;;5058647;28;20197;-67
2023/11/15 15:24:09;;;;;;;7.50;1.30;;;;;;;;;;5057871;28;20231;-67
2023/11/15 15:26:37;;;;;;;9.15;1.30;;;;;;;;;;5058438;28;20272;-67
2023/11/15 15:29:02;;;;;;;12.55;2.17;;;;;;;;;;5057734;28;20242;-67
2023/11/15 15:31:27;;;;;;;15.35;2.55;;;;;;;;;;5056967;28;20189;-67
2023/11/15 15:33:53;;;;;;;15.25;2.60;;;;;;;;;;5058992;28;20195;-67
2023/11/15 15:36:20;;;;;;;7.97;2.20;;;;;;;;;;5054311;28;20196;-67